createdAt,value
2023-05-10T00:00:02.324Z,101718.78
2023-05-10T00:00:16.402Z,101713.41
2023-05-10T00:00:49.982Z,101716.97
2023-05-10T00:01:02.510Z,101720.63
2023-05-10T00:01:14.994Z,101717.94
2023-05-10T00:01:27.494Z,101719.78
2023-05-10T00:01:40.259Z,101715.25
2023-05-10T00:01:53.112Z,101720.63
2023-05-10T00:02:05.720Z,101718.91
2023-05-10T00:02:19.612Z,101718.03
2023-05-10T00:02:32.388Z,101719.78
2023-05-10T00:02:45.259Z,101718.91
2023-05-10T00:02:57.954Z,101716.25
2023-05-10T00:03:10.562Z,101710.88
2023-05-10T00:03:23.299Z,101711.81
2023-05-10T00:03:36.994Z,101715.50
2023-05-10T00:03:49.753Z,101716.34
2023-05-10T00:04:02.379Z,101712.81
2023-05-10T00:04:15.030Z,101707.44
2023-05-10T00:04:28.451Z,101715.50
2023-05-10T00:04:40.941Z,101711.06
2023-05-10T00:04:53.529Z,101708.41
2023-05-10T00:05:07.976Z,101719.13
2023-05-10T00:05:20.526Z,101714.59
2023-05-10T00:05:33.176Z,101715.50
2023-05-10T00:05:45.705Z,101709.38
2023-05-10T00:05:59.522Z,101710.22
2023-05-10T00:06:12.027Z,101713.91
2023-05-10T00:06:25.537Z,101715.69
2023-05-10T00:06:38.035Z,101710.31
2023-05-10T00:06:50.545Z,101712.25
2023-05-10T00:07:03.276Z,101712.25
2023-05-10T00:07:18.089Z,101712.41
2023-05-10T00:07:30.710Z,101714.19
2023-05-10T00:07:45.743Z,101714.19
2023-05-10T00:07:59.502Z,101714.19
2023-05-10T00:08:13.385Z,101709.81
2023-05-10T00:08:25.864Z,101710.78
2023-05-10T00:08:38.412Z,101712.50
2023-05-10T00:08:50.918Z,101711.66
2023-05-10T00:09:04.465Z,101711.66
2023-05-10T00:09:17.926Z,101711.75
2023-05-10T00:09:30.722Z,101710.91
2023-05-10T00:09:43.248Z,101719.81
2023-05-10T00:09:55.768Z,101715.28
2023-05-10T00:10:08.958Z,101714.44
2023-05-10T00:10:21.487Z,101714.44
2023-05-10T00:10:33.980Z,101712.75
2023-05-10T00:10:47.526Z,101708.22
2023-05-10T00:11:00.032Z,101712.75
2023-05-10T00:11:12.531Z,101710.16
2023-05-10T00:11:25.146Z,101719.81
2023-05-10T00:11:37.694Z,101711.00
2023-05-10T00:11:50.444Z,101711.00
2023-05-10T00:12:02.946Z,101711.84
2023-05-10T00:12:16.471Z,101711.00
2023-05-10T00:12:29.039Z,101719.06
2023-05-10T00:12:41.553Z,101703.94
2023-05-10T00:12:54.103Z,101717.34
2023-05-10T00:13:06.752Z,101711.09
2023-05-10T00:13:19.777Z,101709.31
2023-05-10T00:13:33.380Z,101709.31
2023-05-10T00:13:46.049Z,101720.03
2023-05-10T00:13:58.686Z,101713.78
2023-05-10T00:14:11.203Z,101715.63
2023-05-10T00:14:23.684Z,101719.16
2023-05-10T00:14:36.398Z,101713.78
2023-05-10T00:14:49.010Z,101714.78
2023-05-10T00:15:02.633Z,101712.09
2023-05-10T00:15:15.154Z,101706.72
2023-05-10T00:15:27.747Z,101711.25
2023-05-10T00:15:40.368Z,101713.03
2023-05-10T00:15:52.859Z,101708.66
2023-05-10T00:16:07.191Z,101707.81
2023-05-10T00:16:19.819Z,101708.75
2023-05-10T00:16:33.425Z,101715.09
2023-05-10T00:16:46.317Z,101713.38
2023-05-10T00:16:59.229Z,101715.09
2023-05-10T00:17:11.795Z,101717.78
2023-05-10T00:17:24.350Z,101724.97
2023-05-10T00:17:37.075Z,101709.94
2023-05-10T00:17:49.704Z,101710.81
2023-05-10T00:18:02.302Z,101710.81
2023-05-10T00:18:15.821Z,101710.94
2023-05-10T00:18:28.363Z,101717.13
2023-05-10T00:18:41.038Z,101716.28
2023-05-10T00:18:53.518Z,101712.84
2023-05-10T00:19:06.058Z,101714.56
2023-05-10T00:19:18.620Z,101711.88
2023-05-10T00:19:31.090Z,101715.53
2023-05-10T00:19:44.607Z,101710.19
2023-05-10T00:19:57.173Z,101712.97
2023-05-10T00:20:11.349Z,101706.75
2023-05-10T00:20:24.009Z,101715.63
2023-05-10T00:20:36.600Z,101717.47
2023-05-10T00:20:49.815Z,101710.41
2023-05-10T00:21:03.467Z,101717.56
2023-05-10T00:21:16.152Z,101710.50
2023-05-10T00:21:29.401Z,101714.88
2023-05-10T00:21:42.339Z,101707.81
2023-05-10T00:21:55.400Z,101710.59
2023-05-10T00:22:08.001Z,101708.91
2023-05-10T00:22:20.527Z,101711.59
2023-05-10T00:22:33.336Z,101701.81
2023-05-10T00:22:46.826Z,101711.59
2023-05-10T00:22:59.417Z,101707.19
2023-05-10T00:23:13.489Z,101708.16
2023-05-10T00:23:26.050Z,101705.47
2023-05-10T00:23:38.637Z,101706.34
2023-05-10T00:23:51.274Z,101709.97
2023-05-10T00:24:04.240Z,101709.13
2023-05-10T00:24:17.771Z,101707.41
2023-05-10T00:24:30.675Z,101708.25
2023-05-10T00:24:43.261Z,101705.69
2023-05-10T00:24:55.829Z,101703.97
2023-05-10T00:25:10.170Z,101709.34
2023-05-10T00:25:22.759Z,101705.91
2023-05-10T00:25:35.327Z,101701.50
2023-05-10T00:25:47.870Z,101703.34
2023-05-10T00:26:01.391Z,101702.47
2023-05-10T00:26:14.022Z,101701.63
2023-05-10T00:26:26.688Z,101704.41
2023-05-10T00:26:39.279Z,101707.94
2023-05-10T00:26:51.922Z,101703.56
2023-05-10T00:27:05.079Z,101702.72
2023-05-10T00:27:17.564Z,101708.06
2023-05-10T00:27:31.078Z,101704.63
2023-05-10T00:27:43.809Z,101704.63
2023-05-10T00:27:56.358Z,101702.91
2023-05-10T00:28:09.169Z,101706.56
2023-05-10T00:28:21.654Z,101704.84
2023-05-10T00:28:34.179Z,101702.16
2023-05-10T00:28:47.762Z,101702.16
2023-05-10T00:29:00.830Z,101700.47
2023-05-10T00:29:13.362Z,101708.50
2023-05-10T00:29:25.857Z,101700.56
2023-05-10T00:29:38.425Z,101701.41
2023-05-10T00:29:51.056Z,101700.66
2023-05-10T00:30:03.998Z,101706.03
2023-05-10T00:30:17.724Z,101701.63
2023-05-10T00:30:30.476Z,101702.59
2023-05-10T00:30:42.966Z,101703.56
2023-05-10T00:30:55.453Z,101697.34
2023-05-10T00:31:08.842Z,101706.25
2023-05-10T00:31:21.431Z,101699.16
2023-05-10T00:31:34.101Z,101710.84
2023-05-10T00:31:47.920Z,101698.41
2023-05-10T00:32:00.489Z,101702.91
2023-05-10T00:32:14.992Z,101705.81
2023-05-10T00:32:27.569Z,101704.97
2023-05-10T00:32:40.383Z,101703.25
2023-05-10T00:32:52.975Z,101698.84
2023-05-10T00:33:06.560Z,101696.28
2023-05-10T00:33:19.346Z,101707.84
2023-05-10T00:33:31.935Z,101698.97
2023-05-10T00:33:44.482Z,101704.41
2023-05-10T00:33:56.986Z,101705.41
2023-05-10T00:34:09.480Z,101702.81
2023-05-10T00:34:23.037Z,101700.22
2023-05-10T00:34:35.523Z,101706.56
2023-05-10T00:34:48.058Z,101704.84
2023-05-10T00:35:00.624Z,101708.50
2023-05-10T00:35:13.202Z,101708.50
2023-05-10T00:35:25.825Z,101705.81
2023-05-10T00:35:38.996Z,101703.13
2023-05-10T00:35:51.659Z,101702.38
2023-05-10T00:36:04.776Z,101704.22
2023-05-10T00:36:18.242Z,101706.03
2023-05-10T00:36:30.754Z,101697.13
2023-05-10T00:36:43.300Z,101704.31
2023-05-10T00:36:55.768Z,101703.47
2023-05-10T00:37:08.312Z,101709.66
2023-05-10T00:37:20.816Z,101698.09
2023-05-10T00:37:33.321Z,101703.56
2023-05-10T00:37:46.171Z,101696.50
2023-05-10T00:37:59.623Z,101703.78
2023-05-10T00:38:13.674Z,101707.41
2023-05-10T00:38:26.160Z,101703.03
2023-05-10T00:38:39.163Z,101702.19
2023-05-10T00:38:51.653Z,101709.47
2023-05-10T00:39:04.593Z,101705.91
2023-05-10T00:39:18.064Z,101701.53
2023-05-10T00:39:30.801Z,101696.16
2023-05-10T00:39:43.479Z,101706.88
2023-05-10T00:39:56.007Z,101700.69
2023-05-10T00:40:09.144Z,101702.47
2023-05-10T00:40:21.957Z,101701.63
2023-05-10T00:40:37.432Z,101704.41
2023-05-10T00:40:49.947Z,101697.34
2023-05-10T00:41:02.468Z,101704.53
2023-05-10T00:41:14.964Z,101700.13
2023-05-10T00:41:27.651Z,101701.94
2023-05-10T00:41:40.145Z,101701.09
2023-05-10T00:41:52.631Z,101704.72
2023-05-10T00:42:05.523Z,101700.25
2023-05-10T00:42:19.099Z,101696.69
2023-05-10T00:42:31.718Z,101703.88
2023-05-10T00:42:44.261Z,101698.50
2023-05-10T00:42:56.757Z,101702.03
2023-05-10T00:43:09.518Z,101701.19
2023-05-10T00:43:22.033Z,101701.19
2023-05-10T00:43:34.525Z,101699.50
2023-05-10T00:43:48.049Z,101698.50
2023-05-10T00:44:00.642Z,101696.81
2023-05-10T00:44:13.214Z,101694.13
2023-05-10T00:44:25.760Z,101697.75
2023-05-10T00:44:38.627Z,101698.72
2023-05-10T00:44:51.126Z,101696.91
2023-05-10T00:45:04.031Z,101696.06
2023-05-10T00:45:16.929Z,101690.69
2023-05-10T00:45:30.710Z,101694.31
2023-05-10T00:45:43.456Z,101695.31
2023-05-10T00:45:56.228Z,101697.97
2023-05-10T00:46:08.939Z,101693.56
2023-05-10T00:46:22.478Z,101695.41
2023-05-10T00:46:35.462Z,101697.13
2023-05-10T00:46:48.890Z,101694.53
2023-05-10T00:47:01.523Z,101694.44
2023-05-10T00:47:15.166Z,101698.16
2023-05-10T00:47:28.277Z,101698.16
2023-05-10T00:47:41.078Z,101698.16
2023-05-10T00:47:56.189Z,101697.31
2023-05-10T00:48:09.564Z,101692.06
2023-05-10T00:48:22.976Z,101699.25
2023-05-10T00:48:35.764Z,101700.09
2023-05-10T00:48:49.604Z,101694.72
2023-05-10T00:49:02.580Z,101695.72
2023-05-10T00:49:15.267Z,101691.31
2023-05-10T00:49:27.979Z,101693.97
2023-05-10T00:49:41.724Z,101699.34
2023-05-10T00:49:54.588Z,101693.97
2023-05-10T00:50:08.317Z,101696.66
2023-05-10T00:50:21.796Z,101690.44
2023-05-10T00:50:35.012Z,101694.97
2023-05-10T00:50:47.723Z,101691.44
2023-05-10T00:51:00.292Z,101693.25
2023-05-10T00:51:13.351Z,101698.63
2023-05-10T00:51:26.288Z,101695.94
2023-05-10T00:51:38.943Z,101695.06
2023-05-10T00:51:52.642Z,101689.69
2023-05-10T00:52:05.499Z,101694.19
2023-05-10T00:52:17.993Z,101691.53
2023-05-10T00:52:31.268Z,101697.84
2023-05-10T00:52:44.209Z,101695.19
2023-05-10T00:52:56.853Z,101693.44
2023-05-10T00:53:11.216Z,101689.91
2023-05-10T00:53:25.900Z,101700.72
2023-05-10T00:53:38.921Z,101693.66
2023-05-10T00:53:52.402Z,101690.25
2023-05-10T00:54:05.044Z,101700.94
2023-05-10T00:54:17.937Z,101688.50
2023-05-10T00:54:31.039Z,101687.66
2023-05-10T00:54:44.746Z,101689.47
2023-05-10T00:54:57.886Z,101693.09
2023-05-10T00:55:11.025Z,101690.44
2023-05-10T00:55:23.782Z,101687.75
2023-05-10T00:55:36.567Z,101692.25
2023-05-10T00:55:49.249Z,101691.41
2023-05-10T00:56:04.251Z,101695.03
2023-05-10T00:56:16.984Z,101690.66
2023-05-10T00:56:30.856Z,101689.66
2023-05-10T00:56:44.656Z,101687.97
2023-05-10T00:56:58.024Z,101692.47
2023-05-10T00:57:11.973Z,101683.56
2023-05-10T00:57:25.192Z,101687.22
2023-05-10T00:57:37.881Z,101691.59
2023-05-10T00:57:50.568Z,101685.50
2023-05-10T00:58:03.379Z,101693.53
2023-05-10T00:58:16.151Z,101697.16
2023-05-10T00:58:29.391Z,101684.63
2023-05-10T00:58:42.132Z,101691.81
2023-05-10T00:58:55.684Z,101692.78
2023-05-10T00:59:09.266Z,101686.56
2023-05-10T00:59:22.417Z,101691.06
2023-05-10T00:59:35.253Z,101691.06
2023-05-10T00:59:47.909Z,101689.34
2023-05-10T01:00:00.723Z,101689.34
2023-05-10T01:00:18.910Z,101689.34
2023-05-10T01:00:32.476Z,101688.47
2023-05-10T01:00:47.692Z,101691.28
2023-05-10T01:01:01.585Z,101688.59
2023-05-10T01:01:14.785Z,101688.69
2023-05-10T01:01:27.436Z,101690.53
2023-05-10T01:01:40.079Z,101689.53
2023-05-10T01:01:53.475Z,101688.69
2023-05-10T01:02:07.383Z,101692.22
2023-05-10T01:02:20.934Z,101682.50
2023-05-10T01:02:34.958Z,101689.53
2023-05-10T01:02:47.988Z,101688.69
2023-05-10T01:03:00.990Z,101685.03
2023-05-10T01:03:14.042Z,101689.53
2023-05-10T01:03:26.971Z,101689.53
2023-05-10T01:03:41.030Z,101693.06
2023-05-10T01:03:55.106Z,101692.22
2023-05-10T01:04:07.982Z,101686.88
2023-05-10T01:04:22.764Z,101686.88
2023-05-10T01:04:36.532Z,101688.59
2023-05-10T01:04:50.410Z,101685.91
2023-05-10T01:05:04.721Z,101689.44
2023-05-10T01:05:17.318Z,101684.94
2023-05-10T01:05:31.134Z,101691.16
2023-05-10T01:05:43.753Z,101684.00
2023-05-10T01:05:56.442Z,101688.47
2023-05-10T01:06:10.899Z,101692.03
2023-05-10T01:06:23.396Z,101692.03
2023-05-10T01:06:35.909Z,101690.19
2023-05-10T01:06:48.478Z,101685.69
2023-05-10T01:07:02.199Z,101684.75
2023-05-10T01:07:14.722Z,101677.66
2023-05-10T01:07:27.229Z,101679.41
2023-05-10T01:07:39.942Z,101682.06
2023-05-10T01:07:52.456Z,101683.78
2023-05-10T01:08:05.737Z,101688.28
2023-05-10T01:08:18.753Z,101682.94
2023-05-10T01:08:34.046Z,101682.84
2023-05-10T01:08:46.593Z,101687.31
2023-05-10T01:08:59.185Z,101682.84
2023-05-10T01:09:12.700Z,101686.38
2023-05-10T01:09:27.333Z,101681.84
2023-05-10T01:09:40.242Z,101681.84
2023-05-10T01:09:53.988Z,101688.06
2023-05-10T01:10:07.737Z,101677.34
2023-05-10T01:10:20.527Z,101680.88
2023-05-10T01:10:33.195Z,101682.72
2023-05-10T01:10:46.467Z,101676.50
2023-05-10T01:10:59.607Z,101686.38
2023-05-10T01:11:12.188Z,101681.84
2023-05-10T01:11:26.185Z,101679.19
2023-05-10T01:11:40.857Z,101679.19
2023-05-10T01:11:54.352Z,101673.81
2023-05-10T01:12:08.383Z,101676.50
2023-05-10T01:12:21.176Z,101675.53
2023-05-10T01:12:35.060Z,101675.53
2023-05-10T01:12:48.678Z,101678.19
2023-05-10T01:13:03.072Z,101687.97
2023-05-10T01:13:29.068Z,101679.09
2023-05-10T01:13:44.241Z,101675.53
2023-05-10T01:13:58.347Z,101678.19
2023-05-10T01:14:11.121Z,101677.34
2023-05-10T01:14:25.109Z,101679.19
2023-05-10T01:14:37.924Z,101676.50
2023-05-10T01:14:50.534Z,101674.81
2023-05-10T01:15:03.486Z,101675.66
2023-05-10T01:15:17.640Z,101674.81
2023-05-10T01:15:31.909Z,101676.59
2023-05-10T01:15:44.533Z,101677.56
2023-05-10T01:15:57.523Z,101674.03
2023-05-10T01:16:11.356Z,101674.91
2023-05-10T01:16:24.680Z,101676.72
2023-05-10T01:16:39.363Z,101674.03
2023-05-10T01:16:54.239Z,101678.44
2023-05-10T01:17:08.088Z,101675.75
2023-05-10T01:17:21.952Z,101673.06
2023-05-10T01:17:35.849Z,101673.06
2023-05-10T01:17:50.272Z,101680.16
2023-05-10T01:18:04.147Z,101677.47
2023-05-10T01:18:20.395Z,101671.16
2023-05-10T01:18:35.923Z,101673.81
2023-05-10T01:18:49.612Z,101671.16
2023-05-10T01:19:02.306Z,101673.81
2023-05-10T01:19:20.839Z,101672.00
2023-05-10T01:19:38.587Z,101672.84
2023-05-10T01:19:51.449Z,101672.84
2023-05-10T01:20:04.794Z,101671.06
2023-05-10T01:20:17.867Z,101677.25
2023-05-10T01:20:39.254Z,101671.06
2023-05-10T01:21:00.461Z,101675.44
2023-05-10T01:21:23.329Z,101675.44
2023-05-10T01:21:45.098Z,101670.94
2023-05-10T01:22:05.924Z,101667.50
2023-05-10T01:22:41.857Z,101677.25
2023-05-10T01:23:12.963Z,101670.94
2023-05-10T01:23:53.124Z,101671.91
2023-05-10T01:24:43.210Z,101668.38
2023-05-10T01:25:34.063Z,101667.50
2023-05-10T01:26:18.884Z,101670.94
2023-05-10T01:26:49.304Z,101669.22
2023-05-10T01:27:40.988Z,101670.06
2023-05-10T01:28:16.763Z,101672.66
2023-05-10T01:29:00.434Z,101669.13
2023-05-10T01:29:30.351Z,101667.41
2023-05-10T01:30:21.821Z,101662.91
2023-05-10T01:30:58.487Z,101668.16
2023-05-10T01:31:31.575Z,101666.47
2023-05-10T01:32:31.508Z,101670.94
2023-05-10T01:32:56.626Z,101665.69
2023-05-10T01:33:12.723Z,101666.53
2023-05-10T01:33:31.279Z,101670.16
2023-05-10T01:33:51.053Z,101662.13
2023-05-10T01:34:08.074Z,101662.13
2023-05-10T01:34:25.004Z,101666.66
2023-05-10T01:34:44.685Z,101668.47
2023-05-10T01:35:03.686Z,101664.94
2023-05-10T01:35:21.585Z,101658.75
2023-05-10T01:35:41.313Z,101664.94
2023-05-10T01:36:01.004Z,101664.09
2023-05-10T01:36:26.846Z,101658.75
2023-05-10T01:36:46.580Z,101659.59
2023-05-10T01:37:03.960Z,101663.13
2023-05-10T01:37:22.711Z,101659.59
2023-05-10T01:37:42.170Z,101664.09
2023-05-10T01:38:06.990Z,101662.34
2023-05-10T01:38:30.419Z,101660.66
2023-05-10T01:38:47.509Z,101659.91
2023-05-10T01:39:03.436Z,101662.59
2023-05-10T01:39:24.441Z,101667.94
2023-05-10T01:39:45.907Z,101660.00
2023-05-10T01:40:04.117Z,101659.16
2023-05-10T01:40:24.333Z,101666.22
2023-05-10T01:40:41.156Z,101660.09
2023-05-10T01:41:04.779Z,101661.06
2023-05-10T01:41:21.211Z,101660.22
2023-05-10T01:41:41.729Z,101660.22
2023-05-10T01:42:04.499Z,101658.50
2023-05-10T01:42:21.224Z,101658.50
2023-05-10T01:42:41.921Z,101656.78
2023-05-10T01:43:10.087Z,101656.88
2023-05-10T01:43:27.322Z,101663.00
2023-05-10T01:43:47.985Z,101660.31
2023-05-10T01:44:07.940Z,101663.00
2023-05-10T01:44:29.877Z,101656.78
2023-05-10T01:44:50.232Z,101661.25
2023-05-10T01:45:13.162Z,101658.59
2023-05-10T01:45:31.862Z,101654.19
2023-05-10T01:45:52.146Z,101662.22
2023-05-10T01:46:11.887Z,101659.56
2023-05-10T01:46:29.942Z,101664.91
2023-05-10T01:46:42.792Z,101660.50
2023-05-10T01:47:02.530Z,101659.56
2023-05-10T01:47:18.567Z,101656.88
2023-05-10T01:47:39.541Z,101656.88
2023-05-10T01:47:59.673Z,101654.31
2023-05-10T01:48:14.029Z,101657.72
2023-05-10T01:48:29.157Z,101658.59
2023-05-10T01:48:50.072Z,101655.91
2023-05-10T01:49:05.056Z,101660.31
2023-05-10T01:49:25.325Z,101655.06
2023-05-10T01:49:43.208Z,101663.09
2023-05-10T01:49:56.982Z,101659.56
2023-05-10T01:50:17.045Z,101659.56
2023-05-10T01:50:31.695Z,101648.84
2023-05-10T01:50:46.463Z,101658.59
2023-05-10T01:50:59.775Z,101654.19
2023-05-10T01:51:13.751Z,101655.06
2023-05-10T01:51:28.668Z,101658.59
2023-05-10T01:51:46.123Z,101656.88
2023-05-10T01:52:05.104Z,101654.19
2023-05-10T01:52:21.184Z,101651.53
2023-05-10T01:52:39.586Z,101659.56
2023-05-10T01:52:56.759Z,101652.47
2023-05-10T01:53:12.013Z,101654.31
2023-05-10T01:53:25.155Z,101650.78
2023-05-10T01:53:40.081Z,101652.47
2023-05-10T01:53:59.925Z,101658.72
2023-05-10T01:54:15.610Z,101655.16
2023-05-10T01:54:30.029Z,101649.78
2023-05-10T01:54:46.616Z,101654.31
2023-05-10T01:55:03.914Z,101652.47
2023-05-10T01:55:19.213Z,101653.34
2023-05-10T01:55:36.666Z,101652.47
2023-05-10T01:55:53.640Z,101655.16
2023-05-10T01:56:08.839Z,101655.16
2023-05-10T01:56:25.057Z,101644.44
2023-05-10T01:56:41.173Z,101653.34
2023-05-10T01:57:00.432Z,101652.47
2023-05-10T01:57:15.434Z,101658.72
2023-05-10T01:57:33.844Z,101652.47
2023-05-10T01:57:49.064Z,101655.16
2023-05-10T01:58:06.251Z,101653.34
2023-05-10T01:58:23.746Z,101651.53
2023-05-10T01:58:41.976Z,101648.00
2023-05-10T01:58:56.704Z,101654.19
2023-05-10T01:59:14.172Z,101657.72
2023-05-10T01:59:30.715Z,101654.19
2023-05-10T01:59:46.677Z,101649.69
2023-05-10T02:00:01.821Z,101654.19
2023-05-10T02:00:17.513Z,101654.19
2023-05-10T02:00:32.351Z,101642.66
2023-05-10T02:00:47.302Z,101649.69
2023-05-10T02:01:02.805Z,101642.66
2023-05-10T02:01:16.418Z,101651.63
2023-05-10T02:01:29.029Z,101649.91
2023-05-10T02:01:44.126Z,101650.69
2023-05-10T02:02:00.002Z,101649.91
2023-05-10T02:02:15.839Z,101651.63
2023-05-10T02:02:31.188Z,101643.69
2023-05-10T02:02:47.376Z,101645.50
2023-05-10T02:03:06.326Z,101647.34
2023-05-10T02:03:22.819Z,101651.00
2023-05-10T02:03:38.288Z,101648.31
2023-05-10T02:03:52.869Z,101645.72
2023-05-10T02:04:07.326Z,101648.41
2023-05-10T02:04:23.008Z,101646.59
2023-05-10T02:04:39.041Z,101648.41
2023-05-10T02:04:52.469Z,101644.88
2023-05-10T02:05:08.692Z,101648.41
2023-05-10T02:05:22.927Z,101643.16
2023-05-10T02:05:37.680Z,101643.16
2023-05-10T02:05:51.956Z,101645.81
2023-05-10T02:06:06.205Z,101642.31
2023-05-10T02:06:22.126Z,101644.13
2023-05-10T02:06:35.649Z,101642.31
2023-05-10T02:06:49.620Z,101644.13
2023-05-10T02:07:02.871Z,101642.31
2023-05-10T02:07:16.405Z,101639.63
2023-05-10T02:07:29.843Z,101639.63
2023-05-10T02:07:44.186Z,101645.81
2023-05-10T02:07:59.270Z,101644.13
2023-05-10T02:08:13.411Z,101643.16
2023-05-10T02:08:26.902Z,101642.22
2023-05-10T02:08:41.254Z,101638.66
2023-05-10T02:08:54.879Z,101636.94
2023-05-10T02:09:08.388Z,101643.16
2023-05-10T02:09:22.713Z,101638.78
2023-05-10T02:09:36.881Z,101645.81
2023-05-10T02:09:49.422Z,101639.63
2023-05-10T02:10:03.834Z,101641.44
2023-05-10T02:10:17.239Z,101639.63
2023-05-10T02:10:30.337Z,101640.47
2023-05-10T02:10:45.992Z,101644.13
2023-05-10T02:11:00.719Z,101635.13
2023-05-10T02:11:14.402Z,101643.16
2023-05-10T02:11:29.730Z,101640.47
2023-05-10T02:11:44.865Z,101643.16
2023-05-10T02:11:59.637Z,101640.47
2023-05-10T02:12:16.128Z,101643.16
2023-05-10T02:12:31.137Z,101634.28
2023-05-10T02:12:47.186Z,101638.78
2023-05-10T02:13:01.606Z,101638.78
2023-05-10T02:13:16.269Z,101635.22
2023-05-10T02:13:30.878Z,101633.41
2023-05-10T02:13:46.044Z,101638.78
2023-05-10T02:13:59.860Z,101630.75
2023-05-10T02:14:13.502Z,101632.53
2023-05-10T02:14:28.007Z,101633.41
2023-05-10T02:14:42.468Z,101636.94
2023-05-10T02:14:56.112Z,101630.75
2023-05-10T02:15:11.575Z,101629.88
2023-05-10T02:15:26.891Z,101632.66
2023-05-10T02:15:41.256Z,101630.91
2023-05-10T02:15:55.916Z,101631.88
2023-05-10T02:16:09.039Z,101638.94
2023-05-10T02:16:26.377Z,101631.88
2023-05-10T02:16:40.863Z,101637.22
2023-05-10T02:16:56.854Z,101640.84
2023-05-10T02:17:10.652Z,101637.31
2023-05-10T02:17:25.768Z,101631.13
2023-05-10T02:17:40.262Z,101631.13
2023-05-10T02:17:55.559Z,101641.81
2023-05-10T02:18:11.979Z,101632.94
2023-05-10T02:18:27.835Z,101636.47
2023-05-10T02:18:42.173Z,101631.13
2023-05-10T02:18:57.115Z,101630.28
2023-05-10T02:19:11.135Z,101636.47
2023-05-10T02:19:25.003Z,101628.44
2023-05-10T02:19:41.819Z,101627.59
2023-05-10T02:19:56.321Z,101632.06
2023-05-10T02:20:10.302Z,101640.84
2023-05-10T02:20:25.663Z,101633.78
2023-05-10T02:20:39.775Z,101628.44
2023-05-10T02:20:54.924Z,101630.16
2023-05-10T02:21:09.061Z,101632.94
2023-05-10T02:21:22.742Z,101634.75
2023-05-10T02:21:36.339Z,101632.94
2023-05-10T02:21:50.269Z,101640.09
2023-05-10T02:22:05.008Z,101632.06
2023-05-10T02:22:18.681Z,101630.38
2023-05-10T02:22:32.646Z,101629.50
2023-05-10T02:22:47.968Z,101634.88
2023-05-10T02:23:02.000Z,101630.38
2023-05-10T02:23:16.523Z,101638.38
2023-05-10T02:23:30.729Z,101632.19
2023-05-10T02:23:44.329Z,101633.97
2023-05-10T02:23:58.167Z,101626.09
2023-05-10T02:24:12.600Z,101633.13
2023-05-10T02:24:26.297Z,101633.13
2023-05-10T02:24:40.832Z,101625.19
2023-05-10T02:24:56.049Z,101630.56
2023-05-10T02:25:11.380Z,101622.53
2023-05-10T02:25:26.582Z,101628.84
2023-05-10T02:25:40.489Z,101628.84
2023-05-10T02:25:55.991Z,101628.00
2023-05-10T02:26:09.853Z,101624.47
2023-05-10T02:26:24.786Z,101621.78
2023-05-10T02:26:40.284Z,101628.94
2023-05-10T02:26:55.620Z,101633.44
2023-05-10T02:27:09.679Z,101622.75
2023-05-10T02:27:24.186Z,101630.78
2023-05-10T02:27:38.317Z,101624.56
2023-05-10T02:27:52.856Z,101635.28
2023-05-10T02:28:07.421Z,101629.06
2023-05-10T02:28:23.001Z,101623.72
2023-05-10T02:28:38.618Z,101635.28
2023-05-10T02:28:52.975Z,101631.75
2023-05-10T02:29:07.635Z,101630.00
2023-05-10T02:29:21.597Z,101633.66
2023-05-10T02:29:34.889Z,101632.69
2023-05-10T02:29:48.361Z,101630.00
2023-05-10T02:30:03.805Z,101624.66
2023-05-10T02:30:17.996Z,101626.50
2023-05-10T02:30:33.452Z,101632.69
2023-05-10T02:30:47.480Z,101631.00
2023-05-10T02:31:00.764Z,101631.00
2023-05-10T02:31:16.100Z,101631.94
2023-05-10T02:31:29.347Z,101629.25
2023-05-10T02:31:44.515Z,101628.41
2023-05-10T02:31:58.861Z,101634.59
2023-05-10T02:32:13.799Z,101627.56
2023-05-10T02:32:28.543Z,101627.56
2023-05-10T02:32:43.050Z,101632.03
2023-05-10T02:32:57.256Z,101632.91
2023-05-10T02:33:12.210Z,101624.88
2023-05-10T02:33:25.454Z,101632.03
2023-05-10T02:33:40.944Z,101625.81
2023-05-10T02:33:55.249Z,101633.84
2023-05-10T02:34:10.773Z,101622.28
2023-05-10T02:34:26.569Z,101627.66
2023-05-10T02:34:40.520Z,101626.78
2023-05-10T02:34:53.679Z,101625.81
2023-05-10T02:35:08.354Z,101629.47
2023-05-10T02:35:22.135Z,101628.50
2023-05-10T02:35:36.980Z,101625.81
2023-05-10T02:35:51.410Z,101625.81
2023-05-10T02:36:04.573Z,101626.66
2023-05-10T02:36:18.013Z,101625.81
2023-05-10T02:36:31.361Z,101625.72
2023-05-10T02:36:44.548Z,101632.91
2023-05-10T02:36:58.972Z,101623.91
2023-05-10T02:37:12.064Z,101622.22
2023-05-10T02:37:26.349Z,101622.22
2023-05-10T02:37:40.935Z,101631.19
2023-05-10T02:37:54.660Z,101631.19
2023-05-10T02:38:08.530Z,101631.19
2023-05-10T02:38:23.318Z,101624.97
2023-05-10T02:38:37.475Z,101631.19
2023-05-10T02:38:52.828Z,101631.19
2023-05-10T02:39:10.429Z,101628.50
2023-05-10T02:39:24.477Z,101640.19
2023-05-10T02:39:37.684Z,101624.13
2023-05-10T02:39:51.584Z,101627.66
2023-05-10T02:40:06.553Z,101631.19
2023-05-10T02:40:21.836Z,101631.19
2023-05-10T02:40:35.293Z,101634.81
2023-05-10T02:40:49.037Z,101630.31
2023-05-10T02:41:03.176Z,101629.47
2023-05-10T02:41:16.359Z,101629.47
2023-05-10T02:41:33.037Z,101628.63
2023-05-10T02:41:47.917Z,101634.81
2023-05-10T02:42:01.733Z,101630.31
2023-05-10T02:42:17.906Z,101635.69
2023-05-10T02:42:33.868Z,101624.97
2023-05-10T02:42:48.619Z,101624.97
2023-05-10T02:43:03.650Z,101628.50
2023-05-10T02:43:19.166Z,101628.63
2023-05-10T02:43:33.389Z,101630.31
2023-05-10T02:43:48.414Z,101627.66
2023-05-10T02:44:03.800Z,101630.31
2023-05-10T02:44:18.711Z,101624.13
2023-05-10T02:44:32.848Z,101631.19
2023-05-10T02:44:48.890Z,101624.97
2023-05-10T02:45:04.229Z,101631.19
2023-05-10T02:45:20.579Z,101631.19
2023-05-10T02:45:35.457Z,101628.50
2023-05-10T02:45:49.212Z,101620.47
2023-05-10T02:46:02.257Z,101631.19
2023-05-10T02:46:14.860Z,101630.22
2023-05-10T02:46:28.710Z,101630.31
2023-05-10T02:46:41.414Z,101622.28
2023-05-10T02:46:56.855Z,101621.44
2023-05-10T02:47:09.454Z,101629.47
2023-05-10T02:47:22.122Z,101624.13
2023-05-10T02:47:35.181Z,101627.75
2023-05-10T02:47:48.009Z,101624.13
2023-05-10T02:48:01.770Z,101623.28
2023-05-10T02:48:16.389Z,101628.72
2023-05-10T02:48:29.620Z,101636.75
2023-05-10T02:48:42.533Z,101624.31
2023-05-10T02:48:55.186Z,101632.34
2023-05-10T02:49:07.863Z,101633.22
2023-05-10T02:49:20.874Z,101630.53
2023-05-10T02:49:33.456Z,101635.00
2023-05-10T02:49:47.560Z,101630.63
2023-05-10T02:50:00.537Z,101627.09
2023-05-10T02:50:13.369Z,101626.22
2023-05-10T02:50:28.591Z,101620.88